sensor_id;sensor_type;location;lat;lon;timestamp;pressure;altitude;pressure_sealevel;temperature;humidity
63111;BME280;49201;53.426;10.300;2023-02-11T00:00:56;102898.06;;;6.02;100.00
63111;BME280;49201;53.426;10.300;2023-02-11T00:03:21;102910.91;;;6.04;100.00
63111;BME280;49201;53.426;10.300;2023-02-11T00:06:00;102919.63;;;6.07;100.00
63111;BME280;49201;53.426;10.300;2023-02-11T00:08:26;102906.91;;;6.07;100.00
63111;BME280;49201;53.426;10.300;2023-02-11T00:10:53;102894.41;;;6.10;100.00
63111;BME280;49201;53.426;10.300;2023-02-11T00:13:19;102900.38;;;6.11;100.00
63111;BME280;49201;53.426;10.300;2023-02-11T00:15:45;102891.88;;;6.10;100.00
63111;BME280;49201;53.426;10.300;2023-02-11T00:18:10;102891.88;;;6.10;100.00
63111;BME280;49201;53.426;10.300;2023-02-11T00:20:38;102899.63;;;6.12;100.00
63111;BME280;49201;53.426;10.300;2023-02-11T00:23:03;102898.84;;;6.13;100.00
63111;BME280;49201;53.426;10.300;2023-02-11T00:25:29;102905.56;;;6.12;100.00
63111;BME280;49201;53.426;10.300;2023-02-11T00:27:54;102910.66;;;6.12;100.00
63111;BME280;49201;53.426;10.300;2023-02-11T00:30:19;102894.53;;;6.12;100.00
63111;BME280;49201;53.426;10.300;2023-02-11T00:32:45;102895.50;;;6.14;100.00
63111;BME280;49201;53.426;10.300;2023-02-11T00:35:11;102886.22;;;6.14;100.00
63111;BME280;49201;53.426;10.300;2023-02-11T00:37:38;102880.38;;;6.15;100.00
63111;BME280;49201;53.426;10.300;2023-02-11T00:40:04;102880.56;;;6.18;100.00
63111;BME280;49201;53.426;10.300;2023-02-11T00:42:32;102878.00;;;6.18;100.00
63111;BME280;49201;53.426;10.300;2023-02-11T00:45:00;102883.09;;;6.18;100.00
63111;BME280;49201;53.426;10.300;2023-02-11T00:47:26;102887.53;;;6.21;100.00
63111;BME280;49201;53.426;10.300;2023-02-11T00:49:51;102885.75;;;6.20;100.00
63111;BME280;49201;53.426;10.300;2023-02-11T00:52:18;102883.09;;;6.18;100.00
63111;BME280;49201;53.426;10.300;2023-02-11T00:54:43;102884.09;;;6.20;100.00
63111;BME280;49201;53.426;10.300;2023-02-11T00:57:08;102872.28;;;6.21;100.00
63111;BME280;49201;53.426;10.300;2023-02-11T00:59:34;102871.38;;;6.20;100.00
63111;BME280;49201;53.426;10.300;2023-02-11T01:02:00;102874.03;;;6.22;100.00
63111;BME280;49201;53.426;10.300;2023-02-11T01:04:25;102868.97;;;6.22;100.00
63111;BME280;49201;53.426;10.300;2023-02-11T01:06:51;102866.53;;;6.23;100.00
63111;BME280;49201;53.426;10.300;2023-02-11T01:09:16;102852.91;;;6.23;100.00
63111;BME280;49201;53.426;10.300;2023-02-11T01:11:42;102849.28;;;6.19;100.00
63111;BME280;49201;53.426;10.300;2023-02-11T01:14:09;102841.66;;;6.19;100.00
63111;BME280;49201;53.426;10.300;2023-02-11T01:16:35;102848.38;;;6.19;100.00
63111;BME280;49201;53.426;10.300;2023-02-11T01:19:00;102834.03;;;6.19;100.00
63111;BME280;49201;53.426;10.300;2023-02-11T01:21:26;102828.94;;;6.19;100.00
63111;BME280;49201;53.426;10.300;2023-02-11T01:23:52;102831.38;;;6.18;100.00
63111;BME280;49201;53.426;10.300;2023-02-11T01:26:17;102826.16;;;6.16;100.00
63111;BME280;49201;53.426;10.300;2023-02-11T01:28:43;102827.06;;;6.17;100.00
63111;BME280;49201;53.426;10.300;2023-02-11T01:31:08;102823.63;;;6.16;100.00
63111;BME280;49201;53.426;10.300;2023-02-11T01:33:34;102820.19;;;6.16;100.00
63111;BME280;49201;53.426;10.300;2023-02-11T01:36:01;102816.00;;;6.16;100.00
63111;BME280;49201;53.426;10.300;2023-02-11T01:38:27;102807.59;;;6.17;100.00
63111;BME280;49201;53.426;10.300;2023-02-11T01:40:53;102814.44;;;6.18;100.00
63111;BME280;49201;53.426;10.300;2023-02-11T01:43:20;102802.50;;;6.17;100.00
63111;BME280;49201;53.426;10.300;2023-02-11T01:48:20;102804.25;;;6.18;100.00
63111;BME280;49201;53.426;10.300;2023-02-11T01:50:49;102795.75;;;6.18;100.00
63111;BME280;49201;53.426;10.300;2023-02-11T01:53:18;102788.13;;;6.18;100.00
63111;BME280;49201;53.426;10.300;2023-02-11T01:56:02;102802.72;;;6.20;100.00
63111;BME280;49201;53.426;10.300;2023-02-11T01:58:48;102799.09;;;6.17;100.00
63111;BME280;49201;53.426;10.300;2023-02-11T02:01:18;102799.97;;;6.17;100.00
63111;BME280;49201;53.426;10.300;2023-02-11T02:03:48;102785.59;;;6.18;100.00
63111;BME280;49201;53.426;10.300;2023-02-11T02:06:25;102793.22;;;6.18;100.00
63111;BME280;49201;53.426;10.300;2023-02-11T02:09:01;102784.81;;;6.19;100.00
63111;BME280;49201;53.426;10.300;2023-02-11T02:11:28;102784.69;;;6.17;100.00
63111;BME280;49201;53.426;10.300;2023-02-11T02:13:53;102785.81;;;6.21;100.00
63111;BME280;49201;53.426;10.300;2023-02-11T02:16:21;102775.63;;;6.21;100.00
63111;BME280;49201;53.426;10.300;2023-02-11T02:36:04;102775.72;;;6.22;100.00
63111;BME280;49201;53.426;10.300;2023-02-11T02:41:18;102781.03;;;6.25;100.00
63111;BME280;49201;53.426;10.300;2023-02-11T02:43:47;102770.16;;;6.28;100.00
63111;BME280;49201;53.426;10.300;2023-02-11T02:46:22;102767.84;;;6.31;100.00
63111;BME280;49201;53.426;10.300;2023-02-11T02:48:49;102760.31;;;6.32;100.00
63111;BME280;49201;53.426;10.300;2023-02-11T03:00:05;102757.28;;;6.38;100.00
63111;BME280;49201;53.426;10.300;2023-02-11T03:02:41;102755.63;;;6.38;100.00
63111;BME280;49201;53.426;10.300;2023-02-11T03:05:16;102753.19;;;6.40;100.00
63111;BME280;49201;53.426;10.300;2023-02-11T03:07:50;102753.19;;;6.40;100.00
63111;BME280;49201;53.426;10.300;2023-02-11T03:10:38;102761.78;;;6.42;100.00
63111;BME280;49201;53.426;10.300;2023-02-11T03:13:06;102755.81;;;6.41;100.00
63111;BME280;49201;53.426;10.300;2023-02-11T03:15:37;102753.19;;;6.40;100.00
63111;BME280;49201;53.426;10.300;2023-02-11T03:18:04;102751.50;;;6.40;100.00
63111;BME280;49201;53.426;10.300;2023-02-11T03:20:35;102742.22;;;6.41;100.00
63111;BME280;49201;53.426;10.300;2023-02-11T03:23:18;102746.53;;;6.42;100.00
63111;BME280;49201;53.426;10.300;2023-02-11T03:25:52;102741.56;;;6.43;100.00
63111;BME280;49201;53.426;10.300;2023-02-11T03:28:32;102749.06;;;6.42;100.00
63111;BME280;49201;53.426;10.300;2023-02-11T03:36:33;102740.56;;;6.41;100.00
63111;BME280;49201;53.426;10.300;2023-02-11T03:39:01;102742.13;;;6.39;100.00
63111;BME280;49201;53.426;10.300;2023-02-11T03:41:28;102749.06;;;6.42;100.00
63111;BME280;49201;53.426;10.300;2023-02-11T03:43:57;102741.34;;;6.40;100.00
63111;BME280;49201;53.426;10.300;2023-02-11T03:46:29;102734.59;;;6.41;100.00
63111;BME280;49201;53.426;10.300;2023-02-11T03:49:00;102727.94;;;6.43;100.00
63111;BME280;49201;53.426;10.300;2023-02-11T03:51:28;102729.72;;;6.44;100.00
63111;BME280;49201;53.426;10.300;2023-02-11T03:53:56;102724.53;;;6.42;100.00
63111;BME280;49201;53.426;10.300;2023-02-11T03:56:29;102718.66;;;6.43;100.00
63111;BME280;49201;53.426;10.300;2023-02-11T03:58:56;102723.84;;;6.45;100.00
63111;BME280;49201;53.426;10.300;2023-02-11T04:01:22;102721.31;;;6.45;100.00
63111;BME280;49201;53.426;10.300;2023-02-11T04:03:47;102713.78;;;6.46;100.00
63111;BME280;49201;53.426;10.300;2023-02-11T04:06:13;102710.34;;;6.46;100.00
63111;BME280;49201;53.426;10.300;2023-02-11T04:08:38;102713.09;;;6.49;100.00
63111;BME280;49201;53.426;10.300;2023-02-11T04:11:03;102708.09;;;6.50;100.00
63111;BME280;49201;53.426;10.300;2023-02-11T04:13:29;102709.09;;;6.52;100.00
63111;BME280;49201;53.426;10.300;2023-02-11T04:15:54;102714.38;;;6.55;100.00
63111;BME280;49201;53.426;10.300;2023-02-11T04:18:20;102717.78;;;6.56;100.00
63111;BME280;49201;53.426;10.300;2023-02-11T04:20:46;102710.25;;;6.57;100.00
63111;BME280;49201;53.426;10.300;2023-02-11T04:23:12;102710.38;;;6.59;100.00
63111;BME280;49201;53.426;10.300;2023-02-11T04:25:37;102718.00;;;6.59;100.00
63111;BME280;49201;53.426;10.300;2023-02-11T04:28:02;102717.41;;;6.63;100.00
63111;BME280;49201;53.426;10.300;2023-02-11T04:30:28;102719.19;;;6.64;100.00
63111;BME280;49201;53.426;10.300;2023-02-11T04:32:53;102724.28;;;6.64;100.00
63111;BME280;49201;53.426;10.300;2023-02-11T04:35:19;102728.69;;;6.66;100.00
63111;BME280;49201;53.426;10.300;2023-02-11T04:37:45;102722.09;;;6.70;100.00
63111;BME280;49201;53.426;10.300;2023-02-11T04:40:10;102734.94;;;6.71;100.00
63111;BME280;49201;53.426;10.300;2023-02-11T04:42:36;102726.63;;;6.74;100.00
63111;BME280;49201;53.426;10.300;2023-02-11T04:45:01;102737.78;;;6.76;100.00
63111;BME280;49201;53.426;10.300;2023-02-11T04:47:27;102732.00;;;6.78;100.00
63111;BME280;49201;53.426;10.300;2023-02-11T04:49:52;102742.19;;;6.78;100.00
63111;BME280;49201;53.426;10.300;2023-02-11T04:52:18;102738.09;;;6.80;100.00
63111;BME280;49201;53.426;10.300;2023-02-11T04:54:43;102734.75;;;6.81;100.00
63111;BME280;49201;53.426;10.300;2023-02-11T04:57:09;102732.41;;;6.84;100.00
63111;BME280;49201;53.426;10.300;2023-02-11T04:59:34;102730.72;;;6.85;100.00
63111;BME280;49201;53.426;10.300;2023-02-11T05:02:00;102735.06;;;6.86;100.00
63111;BME280;49201;53.426;10.300;2023-02-11T05:04:25;102727.50;;;6.87;100.00
63111;BME280;49201;53.426;10.300;2023-02-11T05:06:51;102729.28;;;6.88;100.00
63111;BME280;49201;53.426;10.300;2023-02-11T05:09:16;102727.91;;;6.93;100.00
63111;BME280;49201;53.426;10.300;2023-02-11T05:11:42;102727.13;;;6.94;100.00
63111;BME280;49201;53.426;10.300;2023-02-11T05:14:07;102734.97;;;6.97;100.00
63111;BME280;49201;53.426;10.300;2023-02-11T05:16:33;102727.31;;;6.97;100.00
63111;BME280;49201;53.426;10.300;2023-02-11T05:18:59;102722.22;;;6.97;100.00
63111;BME280;49201;53.426;10.300;2023-02-11T05:21:24;102726.63;;;7.00;100.00
63111;BME280;49201;53.426;10.300;2023-02-11T05:23:50;102731.81;;;7.01;100.00
63111;BME280;49201;53.426;10.300;2023-02-11T05:26:16;102717.53;;;7.03;100.00
63111;BME280;49201;53.426;10.300;2023-02-11T05:28:42;102716.72;;;7.04;100.00
63111;BME280;49201;53.426;10.300;2023-02-11T05:31:09;102721.03;;;7.05;100.00
63111;BME280;49201;53.426;10.300;2023-02-11T05:33:34;102718.47;;;7.05;100.00
63111;BME280;49201;53.426;10.300;2023-02-11T05:36:03;102716.03;;;7.07;100.00
63111;BME280;49201;53.426;10.300;2023-02-11T05:38:29;102714.56;;;7.10;100.00
63111;BME280;49201;53.426;10.300;2023-02-11T05:40:54;102712.81;;;7.09;100.00
63111;BME280;49201;53.426;10.300;2023-02-11T05:43:20;102703.41;;;7.08;100.00
63111;BME280;49201;53.426;10.300;2023-02-11T05:45:45;102711.94;;;7.09;100.00
63111;BME280;49201;53.426;10.300;2023-02-11T05:48:11;102708.59;;;7.10;100.00
63111;BME280;49201;53.426;10.300;2023-02-11T05:50:36;102704.38;;;7.10;100.00
63111;BME280;49201;53.426;10.300;2023-02-11T05:53:02;102691.56;;;7.09;100.00
63111;BME280;49201;53.426;10.300;2023-02-11T05:55:28;102698.41;;;7.10;100.00
63111;BME280;49201;53.426;10.300;2023-02-11T05:57:53;102698.41;;;7.10;100.00
63111;BME280;49201;53.426;10.300;2023-02-11T06:00:19;102683.31;;;7.13;100.00
63111;BME280;49201;53.426;10.300;2023-02-11T06:02:44;102680.69;;;7.11;100.00
63111;BME280;49201;53.426;10.300;2023-02-11T06:05:09;102676.47;;;7.12;100.00
63111;BME280;49201;53.426;10.300;2023-02-11T06:07:35;102676.56;;;7.13;100.00
63111;BME280;49201;53.426;10.300;2023-02-11T06:10:00;102676.75;;;7.16;100.00
63111;BME280;49201;53.426;10.300;2023-02-11T06:12:26;102684.19;;;7.13;100.00
63111;BME280;49201;53.426;10.300;2023-02-11T06:14:52;102685.19;;;7.15;100.00
63111;BME280;49201;53.426;10.300;2023-02-11T06:17:17;102675.06;;;7.17;100.00
63111;BME280;49201;53.426;10.300;2023-02-11T06:19:43;102684.50;;;7.18;100.00
63111;BME280;49201;53.426;10.300;2023-02-11T06:22:08;102688.59;;;7.16;100.00
63111;BME280;49201;53.426;10.300;2023-02-11T06:24:34;102676.66;;;7.15;100.00
63111;BME280;49201;53.426;10.300;2023-02-11T06:27:02;102671.75;;;7.18;100.00
63111;BME280;49201;53.426;10.300;2023-02-11T06:29:28;102668.53;;;7.20;100.00
63111;BME280;49201;53.426;10.300;2023-02-11T06:31:53;102670.19;;;7.20;100.00
63111;BME280;49201;53.426;10.300;2023-02-11T06:34:18;102672.84;;;7.21;100.00
63111;BME280;49201;53.426;10.300;2023-02-11T06:36:44;102678.03;;;7.23;100.00
63111;BME280;49201;53.426;10.300;2023-02-11T06:39:11;102687.31;;;7.22;100.00
63111;BME280;49201;53.426;10.300;2023-02-11T06:41:36;102686.53;;;7.23;100.00
63111;BME280;49201;53.426;10.300;2023-02-11T06:44:03;102687.31;;;7.22;100.00
63111;BME280;49201;53.426;10.300;2023-02-11T06:46:28;102681.53;;;7.25;100.00
63111;BME280;49201;53.426;10.300;2023-02-11T06:48:54;102676.34;;;7.23;100.00
63111;BME280;49201;53.426;10.300;2023-02-11T06:51:20;102688.22;;;7.23;100.00
63111;BME280;49201;53.426;10.300;2023-02-11T06:53:46;102703.56;;;7.24;100.00
63111;BME280;49201;53.426;10.300;2023-02-11T06:56:17;102709.66;;;7.26;100.00
63111;BME280;49201;53.426;10.300;2023-02-11T06:58:42;102717.31;;;7.26;100.00
63111;BME280;49201;53.426;10.300;2023-02-11T07:01:10;102723.47;;;7.30;100.00
63111;BME280;49201;53.426;10.300;2023-02-11T07:03:38;102731.09;;;7.30;100.00
63111;BME280;49201;53.426;10.300;2023-02-11T07:06:05;102732.97;;;7.32;100.00
63111;BME280;49201;53.426;10.300;2023-02-11T07:08:35;102737.19;;;7.32;100.00
63111;BME280;49201;53.426;10.300;2023-02-11T07:11:08;102733.06;;;7.34;100.00
63111;BME280;49201;53.426;10.300;2023-02-11T07:13:33;102741.59;;;7.34;100.00
63111;BME280;49201;53.426;10.300;2023-02-11T07:16:03;102739.31;;;7.39;100.00
63111;BME280;49201;53.426;10.300;2023-02-11T07:18:29;102741.19;;;7.41;100.00
63111;BME280;49201;53.426;10.300;2023-02-11T07:20:54;102743.81;;;7.43;100.00
63111;BME280;49201;53.426;10.300;2023-02-11T07:23:20;102742.94;;;7.42;100.00
63111;BME280;49201;53.426;10.300;2023-02-11T07:25:45;102741.28;;;7.43;100.00
63111;BME280;49201;53.426;10.300;2023-02-11T07:28:11;102736.97;;;7.42;100.00
63111;BME280;49201;53.426;10.300;2023-02-11T07:30:36;102746.59;;;7.46;100.00
63111;BME280;49201;53.426;10.300;2023-02-11T07:33:01;102744.91;;;7.46;100.00
63111;BME280;49201;53.426;10.300;2023-02-11T07:35:27;102739.69;;;7.45;100.00
63111;BME280;49201;53.426;10.300;2023-02-11T07:37:52;102739.78;;;7.46;100.00
63111;BME280;49201;53.426;10.300;2023-02-11T07:40:18;102737.94;;;7.44;100.00
63111;BME280;49201;53.426;10.300;2023-02-11T07:42:43;102735.59;;;7.47;100.00
63111;BME280;49201;53.426;10.300;2023-02-11T07:45:09;102744.91;;;7.46;100.00
63111;BME280;49201;53.426;10.300;2023-02-11T07:47:34;102742.44;;;7.48;100.00
63111;BME280;49201;53.426;10.300;2023-02-11T07:50:00;102747.75;;;7.51;100.00
63111;BME280;49201;53.426;10.300;2023-02-11T07:52:28;102756.34;;;7.53;100.00
63111;BME280;49201;53.426;10.300;2023-02-11T07:54:54;102764.91;;;7.53;100.00
63111;BME280;49201;53.426;10.300;2023-02-11T07:57:19;102760.75;;;7.55;100.00
63111;BME280;49201;53.426;10.300;2023-02-11T07:59:45;102765.06;;;7.56;100.00
63111;BME280;49201;53.426;10.300;2023-02-11T08:02:10;102764.19;;;7.56;100.00
63111;BME280;49201;53.426;10.300;2023-02-11T08:04:36;102771.06;;;7.57;100.00
63111;BME280;49201;53.426;10.300;2023-02-11T08:07:01;102777.13;;;7.59;100.00
63111;BME280;49201;53.426;10.300;2023-02-11T08:09:27;102773.88;;;7.61;100.00
63111;BME280;49201;53.426;10.300;2023-02-11T08:11:52;102767.13;;;7.62;100.00
63111;BME280;49201;53.426;10.300;2023-02-11T08:14:17;102773.22;;;7.64;100.00
63111;BME280;49201;53.426;10.300;2023-02-11T08:16:44;102764.66;;;7.63;100.00
63111;BME280;49201;53.426;10.300;2023-02-11T08:19:13;102755.53;;;7.67;100.00
63111;BME280;49201;53.426;10.300;2023-02-11T08:21:39;102764.25;;;7.70;100.00
63111;BME280;49201;53.426;10.300;2023-02-11T08:24:05;102761.69;;;7.70;100.00
63111;BME280;49201;53.426;10.300;2023-02-11T08:26:32;102765.34;;;7.74;100.00
63111;BME280;49201;53.426;10.300;2023-02-11T08:29:00;102767.09;;;7.75;100.00
63111;BME280;49201;53.426;10.300;2023-02-11T08:31:32;102773.94;;;7.76;100.00
63111;BME280;49201;53.426;10.300;2023-02-11T08:33:58;102786.00;;;7.78;100.00
63111;BME280;49201;53.426;10.300;2023-02-11T08:36:27;102786.38;;;7.84;100.00
63111;BME280;49201;53.426;10.300;2023-02-11T08:38:58;102781.38;;;7.86;100.00
63111;BME280;49201;53.426;10.300;2023-02-11T08:41:24;102783.16;;;7.87;100.00
63111;BME280;49201;53.426;10.300;2023-02-11T08:43:50;102796.06;;;7.90;100.00
63111;BME280;49201;53.426;10.300;2023-02-11T08:46:18;102798.13;;;7.95;100.00
63111;BME280;49201;53.426;10.300;2023-02-11T08:48:44;102807.44;;;7.95;100.00
63111;BME280;49201;53.426;10.300;2023-02-11T08:51:17;102819.50;;;7.97;100.00
63111;BME280;49201;53.426;10.300;2023-02-11T08:53:43;102817.84;;;7.98;100.00
63111;BME280;49201;53.426;10.300;2023-02-11T08:56:09;102812.03;;;8.00;100.00
63111;BME280;49201;53.426;10.300;2023-02-11T08:58:35;102823.13;;;8.01;100.00
63111;BME280;49201;53.426;10.300;2023-02-11T09:01:01;102808.69;;;8.01;100.00
63111;BME280;49201;53.426;10.300;2023-02-11T09:03:26;102806.34;;;8.04;100.00
63111;BME280;49201;53.426;10.300;2023-02-11T09:05:51;102817.59;;;8.08;100.00
63111;BME280;49201;53.426;10.300;2023-02-11T09:08:18;102815.94;;;8.08;100.00
63111;BME280;49201;53.426;10.300;2023-02-11T09:10:44;102820.63;;;8.15;100.00
63111;BME280;49201;53.426;10.300;2023-02-11T09:13:10;102816.50;;;8.17;100.00
63111;BME280;49201;53.426;10.300;2023-02-11T09:15:36;102819.34;;;8.22;100.00
63111;BME280;49201;53.426;10.300;2023-02-11T09:18:02;102808.84;;;8.17;100.00
63111;BME280;49201;53.426;10.300;2023-02-11T09:20:28;102819.25;;;8.20;100.00
63111;BME280;49201;53.426;10.300;2023-02-11T09:22:56;102822.56;;;8.19;100.00
63111;BME280;49201;53.426;10.300;2023-02-11T09:25:22;102826.72;;;8.17;100.00
63111;BME280;49201;53.426;10.300;2023-02-11T09:27:48;102832.69;;;8.18;100.00
63111;BME280;49201;53.426;10.300;2023-02-11T09:30:15;102844.06;;;8.23;100.00
63111;BME280;49201;53.426;10.300;2023-02-11T09:32:41;102858.63;;;8.24;100.00
63111;BME280;49201;53.426;10.300;2023-02-11T09:35:06;102862.25;;;8.27;100.00
63111;BME280;49201;53.426;10.300;2023-02-11T09:37:32;102864.78;;;8.27;100.00
63111;BME280;49201;53.426;10.300;2023-02-11T09:39:57;102853.88;;;8.30;100.00
63111;BME280;49201;53.426;10.300;2023-02-11T09:42:45;102845.44;;;8.31;100.00
63111;BME280;49201;53.426;10.300;2023-02-11T09:45:21;102852.38;;;8.33;100.00
63111;BME280;49201;53.426;10.300;2023-02-11T09:47:52;102848.28;;;8.35;100.00
63111;BME280;49201;53.426;10.300;2023-02-11T09:50:32;102846.78;;;8.39;100.00
63111;BME280;49201;53.426;10.300;2023-02-11T09:53:06;102840.09;;;8.41;100.00
63111;BME280;49201;53.426;10.300;2023-02-11T09:55:40;102842.53;;;8.39;100.00
63111;BME280;49201;53.426;10.300;2023-02-11T09:58:30;102846.19;;;8.43;100.00
63111;BME280;49201;53.426;10.300;2023-02-11T10:06:56;102842.94;;;8.45;100.00
63111;BME280;49201;53.426;10.300;2023-02-11T10:20:28;102851.13;;;8.54;100.00
63111;BME280;49201;53.426;10.300;2023-02-11T10:22:59;102864.75;;;8.55;100.00
63111;BME280;49201;53.426;10.300;2023-02-11T10:25:57;102860.81;;;8.60;100.00
63111;BME280;49201;53.426;10.300;2023-02-11T10:28:30;102865.91;;;8.60;100.00
63111;BME280;49201;53.426;10.300;2023-02-11T10:31:02;102852.28;;;8.59;100.00
63111;BME280;49201;53.426;10.300;2023-02-11T10:33:34;102855.69;;;8.60;100.00
63111;BME280;49201;53.426;10.300;2023-02-11T10:36:02;102851.50;;;8.60;100.00
63111;BME280;49201;53.426;10.300;2023-02-11T10:38:28;102855.53;;;8.57;100.00
63111;BME280;49201;53.426;10.300;2023-02-11T10:40:53;102858.19;;;8.58;100.00
63111;BME280;49201;53.426;10.300;2023-02-11T10:43:23;102858.19;;;8.58;100.00
63111;BME280;49201;53.426;10.300;2023-02-11T10:45:51;102854.66;;;8.56;100.00
63111;BME280;49201;53.426;10.300;2023-02-11T10:53:33;102841.19;;;8.59;100.00
63111;BME280;49201;53.426;10.300;2023-02-11T10:56:00;102831.88;;;8.59;100.00
63111;BME280;49201;53.426;10.300;2023-02-11T10:58:40;102842.88;;;8.58;100.00
63111;BME280;49201;53.426;10.300;2023-02-11T11:01:08;102849.03;;;8.62;100.00
63111;BME280;49201;53.426;10.300;2023-02-11T11:03:54;102858.84;;;8.56;100.00
63111;BME280;49201;53.426;10.300;2023-02-11T11:06:32;102869.16;;;8.57;100.00
63111;BME280;49201;53.426;10.300;2023-02-11T11:08:59;102881.84;;;8.56;100.00
63111;BME280;49201;53.426;10.300;2023-02-11T11:11:25;102884.31;;;8.54;100.00
63111;BME280;49201;53.426;10.300;2023-02-11T11:16:21;102876.66;;;8.54;100.00
63111;BME280;49201;53.426;10.300;2023-02-11T11:18:49;102872.63;;;8.58;100.00
63111;BME280;49201;53.426;10.300;2023-02-11T11:21:27;102867.41;;;8.56;100.00
63111;BME280;49201;53.426;10.300;2023-02-11T11:23:58;102862.31;;;8.56;100.00
63111;BME280;49201;53.426;10.300;2023-02-11T11:26:26;102863.09;;;8.55;100.00
63111;BME280;49201;53.426;10.300;2023-02-11T11:28:56;102873.22;;;8.54;100.00
63111;BME280;49201;53.426;10.300;2023-02-11T11:31:29;102873.22;;;8.54;100.00
63111;BME280;49201;53.426;10.300;2023-02-11T11:33:58;102885.97;;;8.54;100.00
63111;BME280;49201;53.426;10.300;2023-02-11T11:36:35;102895.41;;;8.55;100.00
63111;BME280;49201;53.426;10.300;2023-02-11T11:39:16;102898.25;;;8.59;100.00
63111;BME280;49201;53.426;10.300;2023-02-11T11:44:58;102899.41;;;8.64;100.00
63111;BME280;49201;53.426;10.300;2023-02-11T11:55:20;102899.84;;;8.72;100.00
63111;BME280;49201;53.426;10.300;2023-02-11T11:57:47;102899.25;;;8.76;100.00
63111;BME280;49201;53.426;10.300;2023-02-11T12:00:31;102895.19;;;8.79;100.00
63111;BME280;49201;53.426;10.300;2023-02-11T12:08:43;102893.53;;;8.80;100.00
63111;BME280;49201;53.426;10.300;2023-02-11T12:20:16;102896.00;;;8.78;100.00
63111;BME280;49201;53.426;10.300;2023-02-11T12:36:01;102880.22;;;8.71;100.00
63111;BME280;49201;53.426;10.300;2023-02-11T12:41:10;102894.94;;;8.75;100.00
63111;BME280;49201;53.426;10.300;2023-02-11T12:43:41;102899.94;;;8.73;100.00
63111;BME280;49201;53.426;10.300;2023-02-11T12:54:32;102897.00;;;8.67;100.00
63111;BME280;49201;53.426;10.300;2023-02-11T13:00:37;102884.44;;;8.70;100.00
63111;BME280;49201;53.426;10.300;2023-02-11T13:08:27;102890.53;;;8.72;100.00
63111;BME280;49201;53.426;10.300;2023-02-11T13:10:58;102879.63;;;8.75;100.00
63111;BME280;49201;53.426;10.300;2023-02-11T13:13:29;102881.38;;;8.76;100.00
63111;BME280;49201;53.426;10.300;2023-02-11T13:16:04;102884.03;;;8.77;100.00
63111;BME280;49201;53.426;10.300;2023-02-11T13:27:19;102879.88;;;8.79;100.00
63111;BME280;49201;53.426;10.300;2023-02-11T13:31:40;102885.78;;;8.78;100.00
63111;BME280;49201;53.426;10.300;2023-02-11T13:34:26;102882.34;;;8.78;100.00
63111;BME280;49201;53.426;10.300;2023-02-11T13:37:25;102887.81;;;8.84;100.00
63111;BME280;49201;53.426;10.300;2023-02-11T13:40:19;102878.47;;;8.84;100.00
63111;BME280;49201;53.426;10.300;2023-02-11T13:42:59;102891.34;;;8.86;100.00
63111;BME280;49201;53.426;10.300;2023-02-11T13:45:39;102881.72;;;8.82;100.00
63111;BME280;49201;53.426;10.300;2023-02-11T13:48:19;102892.84;;;8.82;100.00
63111;BME280;49201;53.426;10.300;2023-02-11T13:50:48;102897.06;;;8.82;100.00
63111;BME280;49201;53.426;10.300;2023-02-11T13:53:15;102896.16;;;8.81;100.00
63111;BME280;49201;53.426;10.300;2023-02-11T13:55:46;102895.28;;;8.81;100.00
63111;BME280;49201;53.426;10.300;2023-02-11T14:16:26;102930.34;;;8.83;100.00
63111;BME280;49201;53.426;10.300;2023-02-11T14:23:53;102936.16;;;8.81;100.00
63111;BME280;49201;53.426;10.300;2023-02-11T14:26:55;102937.81;;;8.80;100.00
63111;BME280;49201;53.426;10.300;2023-02-11T14:37:26;102963.97;;;8.76;100.00
63111;BME280;49201;53.426;10.300;2023-02-11T14:40:04;102964.66;;;8.74;100.00
63111;BME280;49201;53.426;10.300;2023-02-11T14:42:36;102968.13;;;8.74;100.00
63111;BME280;49201;53.426;10.300;2023-02-11T14:45:07;102971.56;;;8.75;100.00
63111;BME280;49201;53.426;10.300;2023-02-11T14:47:46;102976.47;;;8.72;100.00
63111;BME280;49201;53.426;10.300;2023-02-11T14:50:19;102979.22;;;8.75;100.00
63111;BME280;49201;53.426;10.300;2023-02-11T14:52:47;102982.47;;;8.72;100.00
63111;BME280;49201;53.426;10.300;2023-02-11T14:57:44;102985.78;;;8.71;100.00
63111;BME280;49201;53.426;10.300;2023-02-11T15:00:18;102991.00;;;8.73;100.00
63111;BME280;49201;53.426;10.300;2023-02-11T15:02:44;102995.16;;;8.71;100.00
63111;BME280;49201;53.426;10.300;2023-02-11T15:05:19;102992.50;;;8.69;100.00
63111;BME280;49201;53.426;10.300;2023-02-11T15:07:48;102994.94;;;8.68;100.00
63111;BME280;49201;53.426;10.300;2023-02-11T15:10:35;102988.19;;;8.68;100.00
63111;BME280;49201;53.426;10.300;2023-02-11T15:13:02;102989.84;;;8.68;100.00
63111;BME280;49201;53.426;10.300;2023-02-11T15:15:28;102993.19;;;8.67;100.00
63111;BME280;49201;53.426;10.300;2023-02-11T15:17:58;103002.41;;;8.65;100.00
63111;BME280;49201;53.426;10.300;2023-02-11T15:20:27;103007.44;;;8.63;100.00
63111;BME280;49201;53.426;10.300;2023-02-11T15:23:01;103004.19;;;8.66;100.00
63111;BME280;49201;53.426;10.300;2023-02-11T15:25:27;103010.06;;;8.65;100.00
63111;BME280;49201;53.426;10.300;2023-02-11T15:27:56;103016.88;;;8.64;100.00
63111;BME280;49201;53.426;10.300;2023-02-11T15:32:55;103026.97;;;8.63;100.00
63111;BME280;49201;53.426;10.300;2023-02-11T15:35:31;103028.63;;;8.62;100.00